sensor_id;sensor_type;location;lat;lon;timestamp;temperature;humidity
7216;DHT22;3649;48.798;9.798;2023-05-07T00:02:00;17.40;99.90
7216;DHT22;3649;48.798;9.798;2023-05-07T00:04:27;17.40;99.90
7216;DHT22;3649;48.798;9.798;2023-05-07T00:06:55;17.40;99.90
7216;DHT22;3649;48.798;9.798;2023-05-07T00:09:22;17.40;99.90
7216;DHT22;3649;48.798;9.798;2023-05-07T00:11:49;17.30;99.90
7216;DHT22;3649;48.798;9.798;2023-05-07T00:14:15;17.30;99.90
7216;DHT22;3649;48.798;9.798;2023-05-07T00:16:42;17.30;99.90
7216;DHT22;3649;48.798;9.798;2023-05-07T00:19:09;17.30;99.90
7216;DHT22;3649;48.798;9.798;2023-05-07T00:21:36;17.30;99.90
7216;DHT22;3649;48.798;9.798;2023-05-07T00:24:03;17.30;99.90
7216;DHT22;3649;48.798;9.798;2023-05-07T00:26:30;17.30;99.90
7216;DHT22;3649;48.798;9.798;2023-05-07T00:28:57;17.30;99.90
7216;DHT22;3649;48.798;9.798;2023-05-07T00:31:24;17.30;99.90
7216;DHT22;3649;48.798;9.798;2023-05-07T00:33:51;17.20;99.90
7216;DHT22;3649;48.798;9.798;2023-05-07T00:36:17;17.20;99.90
7216;DHT22;3649;48.798;9.798;2023-05-07T00:38:44;17.20;99.90
7216;DHT22;3649;48.798;9.798;2023-05-07T00:41:11;17.20;99.90
7216;DHT22;3649;48.798;9.798;2023-05-07T00:43:38;17.20;99.90
7216;DHT22;3649;48.798;9.798;2023-05-07T00:46:05;17.20;99.90
7216;DHT22;3649;48.798;9.798;2023-05-07T00:48:32;17.10;99.90
7216;DHT22;3649;48.798;9.798;2023-05-07T00:50:59;17.10;99.90
7216;DHT22;3649;48.798;9.798;2023-05-07T00:53:26;17.00;99.90
7216;DHT22;3649;48.798;9.798;2023-05-07T00:55:53;17.10;99.90
7216;DHT22;3649;48.798;9.798;2023-05-07T00:58:20;17.00;99.90
7216;DHT22;3649;48.798;9.798;2023-05-07T01:00:47;17.00;99.90
7216;DHT22;3649;48.798;9.798;2023-05-07T01:03:14;17.00;99.90
7216;DHT22;3649;48.798;9.798;2023-05-07T01:05:42;17.00;99.90
7216;DHT22;3649;48.798;9.798;2023-05-07T01:08:11;17.00;99.90
7216;DHT22;3649;48.798;9.798;2023-05-07T01:10:39;16.90;99.90
7216;DHT22;3649;48.798;9.798;2023-05-07T01:13:10;16.90;99.90
7216;DHT22;3649;48.798;9.798;2023-05-07T01:15:37;17.00;99.90
7216;DHT22;3649;48.798;9.798;2023-05-07T01:18:04;17.00;99.90
7216;DHT22;3649;48.798;9.798;2023-05-07T01:20:33;17.00;99.90
7216;DHT22;3649;48.798;9.798;2023-05-07T01:23:01;17.00;99.90
7216;DHT22;3649;48.798;9.798;2023-05-07T01:25:28;17.00;99.90
7216;DHT22;3649;48.798;9.798;2023-05-07T01:27:55;17.00;99.90
7216;DHT22;3649;48.798;9.798;2023-05-07T01:30:22;17.00;99.90
7216;DHT22;3649;48.798;9.798;2023-05-07T01:32:59;16.90;99.90
7216;DHT22;3649;48.798;9.798;2023-05-07T01:35:32;16.90;99.90
7216;DHT22;3649;48.798;9.798;2023-05-07T01:38:00;17.00;99.90
7216;DHT22;3649;48.798;9.798;2023-05-07T01:40:27;16.90;99.90
7216;DHT22;3649;48.798;9.798;2023-05-07T01:42:54;16.90;99.90
7216;DHT22;3649;48.798;9.798;2023-05-07T01:45:21;16.80;99.90
7216;DHT22;3649;48.798;9.798;2023-05-07T01:47:49;17.00;99.90
7216;DHT22;3649;48.798;9.798;2023-05-07T01:50:17;16.80;99.90
7216;DHT22;3649;48.798;9.798;2023-05-07T01:52:44;16.80;99.90
7216;DHT22;3649;48.798;9.798;2023-05-07T01:55:16;16.80;99.90
7216;DHT22;3649;48.798;9.798;2023-05-07T01:57:43;16.80;99.90
7216;DHT22;3649;48.798;9.798;2023-05-07T02:00:10;16.80;99.90
7216;DHT22;3649;48.798;9.798;2023-05-07T02:02:38;16.80;99.90
7216;DHT22;3649;48.798;9.798;2023-05-07T02:05:05;16.70;99.90
7216;DHT22;3649;48.798;9.798;2023-05-07T02:07:32;16.70;99.90
7216;DHT22;3649;48.798;9.798;2023-05-07T02:09:59;16.70;99.90
7216;DHT22;3649;48.798;9.798;2023-05-07T02:12:26;16.60;99.90
7216;DHT22;3649;48.798;9.798;2023-05-07T02:14:52;16.60;99.90
7216;DHT22;3649;48.798;9.798;2023-05-07T02:17:19;16.50;99.90
7216;DHT22;3649;48.798;9.798;2023-05-07T02:19:46;16.60;99.90
7216;DHT22;3649;48.798;9.798;2023-05-07T02:22:13;16.60;99.90
7216;DHT22;3649;48.798;9.798;2023-05-07T02:24:40;16.70;99.90
7216;DHT22;3649;48.798;9.798;2023-05-07T02:27:07;16.70;99.90
7216;DHT22;3649;48.798;9.798;2023-05-07T02:29:33;16.60;99.90
7216;DHT22;3649;48.798;9.798;2023-05-07T02:32:00;16.60;99.90
7216;DHT22;3649;48.798;9.798;2023-05-07T02:34:27;16.50;99.90
7216;DHT22;3649;48.798;9.798;2023-05-07T02:36:54;16.50;99.90
7216;DHT22;3649;48.798;9.798;2023-05-07T02:39:22;16.50;99.90
7216;DHT22;3649;48.798;9.798;2023-05-07T02:41:48;16.50;99.90
7216;DHT22;3649;48.798;9.798;2023-05-07T02:44:15;16.50;99.90
7216;DHT22;3649;48.798;9.798;2023-05-07T02:46:43;16.30;99.90
7216;DHT22;3649;48.798;9.798;2023-05-07T02:49:09;16.40;99.90
7216;DHT22;3649;48.798;9.798;2023-05-07T02:51:36;16.50;99.90
7216;DHT22;3649;48.798;9.798;2023-05-07T02:54:03;16.50;99.90
7216;DHT22;3649;48.798;9.798;2023-05-07T02:56:30;16.50;99.90
7216;DHT22;3649;48.798;9.798;2023-05-07T02:58:57;16.80;99.90
7216;DHT22;3649;48.798;9.798;2023-05-07T03:01:25;16.40;99.90
7216;DHT22;3649;48.798;9.798;2023-05-07T03:03:51;16.40;99.90
7216;DHT22;3649;48.798;9.798;2023-05-07T03:06:18;16.30;99.90
7216;DHT22;3649;48.798;9.798;2023-05-07T03:08:45;16.50;99.90
7216;DHT22;3649;48.798;9.798;2023-05-07T03:11:12;16.30;99.90
7216;DHT22;3649;48.798;9.798;2023-05-07T03:13:39;18.20;99.90
7216;DHT22;3649;48.798;9.798;2023-05-07T03:16:06;16.40;99.90
7216;DHT22;3649;48.798;9.798;2023-05-07T03:18:33;16.40;99.90
7216;DHT22;3649;48.798;9.798;2023-05-07T03:21:00;16.30;99.90
7216;DHT22;3649;48.798;9.798;2023-05-07T03:23:27;16.30;99.90
7216;DHT22;3649;48.798;9.798;2023-05-07T03:25:53;16.10;99.90
7216;DHT22;3649;48.798;9.798;2023-05-07T03:28:20;16.10;99.90
7216;DHT22;3649;48.798;9.798;2023-05-07T03:30:47;16.10;99.90
7216;DHT22;3649;48.798;9.798;2023-05-07T03:33:14;16.10;99.90
7216;DHT22;3649;48.798;9.798;2023-05-07T03:35:41;16.10;99.90
7216;DHT22;3649;48.798;9.798;2023-05-07T03:38:08;16.10;99.90
7216;DHT22;3649;48.798;9.798;2023-05-07T03:40:35;16.10;99.90
7216;DHT22;3649;48.798;9.798;2023-05-07T03:43:02;16.10;99.90
7216;DHT22;3649;48.798;9.798;2023-05-07T03:45:29;16.10;99.90
7216;DHT22;3649;48.798;9.798;2023-05-07T03:47:56;16.10;99.90
7216;DHT22;3649;48.798;9.798;2023-05-07T03:50:22;16.10;99.90
7216;DHT22;3649;48.798;9.798;2023-05-07T03:52:49;16.00;99.90
7216;DHT22;3649;48.798;9.798;2023-05-07T03:55:16;16.00;99.90
7216;DHT22;3649;48.798;9.798;2023-05-07T03:57:43;15.90;99.90
7216;DHT22;3649;48.798;9.798;2023-05-07T04:00:10;16.10;99.90
7216;DHT22;3649;48.798;9.798;2023-05-07T04:02:38;15.90;99.90
7216;DHT22;3649;48.798;9.798;2023-05-07T04:05:05;15.90;99.90
7216;DHT22;3649;48.798;9.798;2023-05-07T04:07:32;15.90;99.90
7216;DHT22;3649;48.798;9.798;2023-05-07T04:09:59;15.90;99.90
7216;DHT22;3649;48.798;9.798;2023-05-07T04:12:26;15.90;99.90
7216;DHT22;3649;48.798;9.798;2023-05-07T04:14:52;15.80;99.90
7216;DHT22;3649;48.798;9.798;2023-05-07T04:17:19;15.80;99.90
7216;DHT22;3649;48.798;9.798;2023-05-07T04:19:46;15.80;99.90
7216;DHT22;3649;48.798;9.798;2023-05-07T04:22:13;15.80;99.90
7216;DHT22;3649;48.798;9.798;2023-05-07T04:24:40;15.80;99.90
7216;DHT22;3649;48.798;9.798;2023-05-07T04:27:07;15.80;99.90
7216;DHT22;3649;48.798;9.798;2023-05-07T04:29:33;15.80;99.90
7216;DHT22;3649;48.798;9.798;2023-05-07T04:32:00;15.80;99.90
7216;DHT22;3649;48.798;9.798;2023-05-07T04:34:28;15.80;99.90
7216;DHT22;3649;48.798;9.798;2023-05-07T04:36:58;15.70;99.90
7216;DHT22;3649;48.798;9.798;2023-05-07T04:39:25;15.80;99.90
7216;DHT22;3649;48.798;9.798;2023-05-07T04:41:52;15.90;99.90
7216;DHT22;3649;48.798;9.798;2023-05-07T04:44:18;15.80;99.90
7216;DHT22;3649;48.798;9.798;2023-05-07T04:46:45;15.90;99.90
7216;DHT22;3649;48.798;9.798;2023-05-07T04:49:12;15.90;99.90
7216;DHT22;3649;48.798;9.798;2023-05-07T04:51:39;15.90;99.90
7216;DHT22;3649;48.798;9.798;2023-05-07T04:54:10;15.90;99.90
7216;DHT22;3649;48.798;9.798;2023-05-07T04:56:37;15.90;99.90
7216;DHT22;3649;48.798;9.798;2023-05-07T04:59:04;16.00;99.90
7216;DHT22;3649;48.798;9.798;2023-05-07T05:01:32;16.00;99.90
7216;DHT22;3649;48.798;9.798;2023-05-07T05:03:59;16.00;99.90
7216;DHT22;3649;48.798;9.798;2023-05-07T05:06:27;16.00;99.90
7216;DHT22;3649;48.798;9.798;2023-05-07T05:08:54;16.10;99.90
7216;DHT22;3649;48.798;9.798;2023-05-07T05:11:21;16.00;99.90
7216;DHT22;3649;48.798;9.798;2023-05-07T05:13:48;16.10;99.90
7216;DHT22;3649;48.798;9.798;2023-05-07T05:16:16;16.20;99.90
7216;DHT22;3649;48.798;9.798;2023-05-07T05:18:43;16.30;99.90
7216;DHT22;3649;48.798;9.798;2023-05-07T05:21:10;16.30;99.90
7216;DHT22;3649;48.798;9.798;2023-05-07T05:23:36;16.30;99.90
7216;DHT22;3649;48.798;9.798;2023-05-07T05:26:03;16.30;99.90
7216;DHT22;3649;48.798;9.798;2023-05-07T05:28:30;16.40;99.90
7216;DHT22;3649;48.798;9.798;2023-05-07T05:30:57;16.40;99.90
7216;DHT22;3649;48.798;9.798;2023-05-07T05:33:24;16.50;99.90
7216;DHT22;3649;48.798;9.798;2023-05-07T05:35:50;16.50;99.90
7216;DHT22;3649;48.798;9.798;2023-05-07T05:38:17;16.50;99.90
7216;DHT22;3649;48.798;9.798;2023-05-07T05:40:44;16.40;99.90
7216;DHT22;3649;48.798;9.798;2023-05-07T05:43:11;16.40;99.90
7216;DHT22;3649;48.798;9.798;2023-05-07T05:45:38;16.40;99.90
7216;DHT22;3649;48.798;9.798;2023-05-07T05:48:05;16.50;99.90
7216;DHT22;3649;48.798;9.798;2023-05-07T05:50:32;16.50;99.90
7216;DHT22;3649;48.798;9.798;2023-05-07T05:52:59;16.50;99.90
7216;DHT22;3649;48.798;9.798;2023-05-07T05:55:26;16.50;99.90
7216;DHT22;3649;48.798;9.798;2023-05-07T05:57:53;16.60;99.90
7216;DHT22;3649;48.798;9.798;2023-05-07T06:00:20;16.70;99.90
7216;DHT22;3649;48.798;9.798;2023-05-07T06:02:49;16.60;99.90
7216;DHT22;3649;48.798;9.798;2023-05-07T06:05:16;16.70;99.90
7216;DHT22;3649;48.798;9.798;2023-05-07T06:07:43;16.70;99.90
7216;DHT22;3649;48.798;9.798;2023-05-07T06:10:10;16.80;99.90
7216;DHT22;3649;48.798;9.798;2023-05-07T06:12:37;17.00;99.90
7216;DHT22;3649;48.798;9.798;2023-05-07T06:15:04;17.10;99.90
7216;DHT22;3649;48.798;9.798;2023-05-07T06:17:32;17.10;99.90
7216;DHT22;3649;48.798;9.798;2023-05-07T06:19:58;17.20;99.90
7216;DHT22;3649;48.798;9.798;2023-05-07T06:22:25;17.20;99.90
7216;DHT22;3649;48.798;9.798;2023-05-07T06:24:52;17.40;99.90
7216;DHT22;3649;48.798;9.798;2023-05-07T06:27:19;17.40;99.90
7216;DHT22;3649;48.798;9.798;2023-05-07T06:29:48;17.50;99.90
7216;DHT22;3649;48.798;9.798;2023-05-07T06:32:14;17.60;99.90
7216;DHT22;3649;48.798;9.798;2023-05-07T06:34:41;17.70;99.90
7216;DHT22;3649;48.798;9.798;2023-05-07T06:37:08;17.70;99.90
7216;DHT22;3649;48.798;9.798;2023-05-07T06:39:35;17.90;99.90
7216;DHT22;3649;48.798;9.798;2023-05-07T06:42:02;17.90;99.90
7216;DHT22;3649;48.798;9.798;2023-05-07T06:44:31;18.10;99.90
7216;DHT22;3649;48.798;9.798;2023-05-07T06:46:58;18.20;99.90
7216;DHT22;3649;48.798;9.798;2023-05-07T06:49:25;18.40;99.90
7216;DHT22;3649;48.798;9.798;2023-05-07T06:51:52;18.50;99.90
7216;DHT22;3649;48.798;9.798;2023-05-07T06:54:19;18.60;99.90
7216;DHT22;3649;48.798;9.798;2023-05-07T06:56:46;18.60;99.90
7216;DHT22;3649;48.798;9.798;2023-05-07T06:59:13;18.70;99.90
7216;DHT22;3649;48.798;9.798;2023-05-07T07:01:40;18.80;99.90
7216;DHT22;3649;48.798;9.798;2023-05-07T07:04:07;18.90;99.90
7216;DHT22;3649;48.798;9.798;2023-05-07T07:06:34;19.00;99.90
7216;DHT22;3649;48.798;9.798;2023-05-07T07:09:01;19.10;99.90
7216;DHT22;3649;48.798;9.798;2023-05-07T07:11:28;19.20;99.90
7216;DHT22;3649;48.798;9.798;2023-05-07T07:13:55;19.30;99.90
7216;DHT22;3649;48.798;9.798;2023-05-07T07:16:22;19.40;99.90
7216;DHT22;3649;48.798;9.798;2023-05-07T07:18:49;19.60;99.90
7216;DHT22;3649;48.798;9.798;2023-05-07T07:21:15;19.60;99.90
7216;DHT22;3649;48.798;9.798;2023-05-07T07:23:42;19.70;99.90
7216;DHT22;3649;48.798;9.798;2023-05-07T07:26:09;19.80;99.90
7216;DHT22;3649;48.798;9.798;2023-05-07T07:28:42;19.80;99.90
7216;DHT22;3649;48.798;9.798;2023-05-07T07:31:11;19.80;99.90
7216;DHT22;3649;48.798;9.798;2023-05-07T07:33:38;19.80;99.90
7216;DHT22;3649;48.798;9.798;2023-05-07T07:36:05;19.80;99.90
7216;DHT22;3649;48.798;9.798;2023-05-07T07:38:33;19.90;99.90
7216;DHT22;3649;48.798;9.798;2023-05-07T07:41:01;19.90;99.90
7216;DHT22;3649;48.798;9.798;2023-05-07T07:43:28;20.00;99.90
7216;DHT22;3649;48.798;9.798;2023-05-07T07:45:55;20.10;99.90
7216;DHT22;3649;48.798;9.798;2023-05-07T07:48:22;20.10;99.90
7216;DHT22;3649;48.798;9.798;2023-05-07T07:50:49;20.20;99.90
7216;DHT22;3649;48.798;9.798;2023-05-07T07:53:17;20.40;99.90
7216;DHT22;3649;48.798;9.798;2023-05-07T07:55:44;20.60;99.90
7216;DHT22;3649;48.798;9.798;2023-05-07T07:58:11;20.70;99.90
7216;DHT22;3649;48.798;9.798;2023-05-07T08:00:38;20.90;99.90
7216;DHT22;3649;48.798;9.798;2023-05-07T08:03:05;21.00;99.90
7216;DHT22;3649;48.798;9.798;2023-05-07T08:05:34;21.20;99.90
7216;DHT22;3649;48.798;9.798;2023-05-07T08:08:01;21.30;99.90
7216;DHT22;3649;48.798;9.798;2023-05-07T08:10:27;21.40;99.90
7216;DHT22;3649;48.798;9.798;2023-05-07T08:12:54;21.50;99.90
7216;DHT22;3649;48.798;9.798;2023-05-07T08:15:21;21.60;99.90
7216;DHT22;3649;48.798;9.798;2023-05-07T08:17:48;21.60;99.90
7216;DHT22;3649;48.798;9.798;2023-05-07T08:20:15;21.70;99.90
7216;DHT22;3649;48.798;9.798;2023-05-07T08:22:42;21.80;99.90
7216;DHT22;3649;48.798;9.798;2023-05-07T08:25:09;21.90;99.90
7216;DHT22;3649;48.798;9.798;2023-05-07T08:27:36;21.90;99.90
7216;DHT22;3649;48.798;9.798;2023-05-07T08:30:04;22.00;99.90
7216;DHT22;3649;48.798;9.798;2023-05-07T08:32:31;22.10;99.90
7216;DHT22;3649;48.798;9.798;2023-05-07T08:34:57;22.20;99.90
7216;DHT22;3649;48.798;9.798;2023-05-07T08:37:24;22.20;99.90
7216;DHT22;3649;48.798;9.798;2023-05-07T08:39:51;22.30;99.90
7216;DHT22;3649;48.798;9.798;2023-05-07T08:42:18;22.30;99.90
7216;DHT22;3649;48.798;9.798;2023-05-07T08:44:47;22.30;99.90
7216;DHT22;3649;48.798;9.798;2023-05-07T08:47:16;22.40;99.90
7216;DHT22;3649;48.798;9.798;2023-05-07T08:49:44;22.40;99.90
7216;DHT22;3649;48.798;9.798;2023-05-07T08:52:12;22.40;99.90
7216;DHT22;3649;48.798;9.798;2023-05-07T08:54:39;22.40;99.90
7216;DHT22;3649;48.798;9.798;2023-05-07T08:57:06;22.40;99.90
7216;DHT22;3649;48.798;9.798;2023-05-07T08:59:33;22.50;99.90
7216;DHT22;3649;48.798;9.798;2023-05-07T09:02:00;22.50;99.90
7216;DHT22;3649;48.798;9.798;2023-05-07T09:04:27;22.50;99.90
7216;DHT22;3649;48.798;9.798;2023-05-07T09:06:54;22.60;99.90
7216;DHT22;3649;48.798;9.798;2023-05-07T09:09:22;22.60;99.90
7216;DHT22;3649;48.798;9.798;2023-05-07T09:11:56;22.60;99.90
7216;DHT22;3649;48.798;9.798;2023-05-07T09:14:25;22.60;99.90
7216;DHT22;3649;48.798;9.798;2023-05-07T09:16:52;22.60;99.90
7216;DHT22;3649;48.798;9.798;2023-05-07T09:19:24;22.70;99.90
7216;DHT22;3649;48.798;9.798;2023-05-07T09:22:01;22.70;99.90
7216;DHT22;3649;48.798;9.798;2023-05-07T09:24:29;22.80;99.90
7216;DHT22;3649;48.798;9.798;2023-05-07T09:27:04;22.70;99.90
7216;DHT22;3649;48.798;9.798;2023-05-07T09:29:32;22.80;99.90
7216;DHT22;3649;48.798;9.798;2023-05-07T09:32:05;22.80;99.90
7216;DHT22;3649;48.798;9.798;2023-05-07T09:34:32;22.80;99.90
7216;DHT22;3649;48.798;9.798;2023-05-07T09:37:03;22.90;99.90
7216;DHT22;3649;48.798;9.798;2023-05-07T09:39:44;22.90;99.90
7216;DHT22;3649;48.798;9.798;2023-05-07T09:42:11;22.90;99.90
7216;DHT22;3649;48.798;9.798;2023-05-07T09:44:39;22.90;99.90
7216;DHT22;3649;48.798;9.798;2023-05-07T09:47:06;22.90;99.90
7216;DHT22;3649;48.798;9.798;2023-05-07T09:49:35;22.90;99.90
7216;DHT22;3649;48.798;9.798;2023-05-07T09:52:05;22.80;99.90
7216;DHT22;3649;48.798;9.798;2023-05-07T09:54:36;22.80;99.90
7216;DHT22;3649;48.798;9.798;2023-05-07T09:57:07;22.70;99.90
7216;DHT22;3649;48.798;9.798;2023-05-07T09:59:37;22.70;99.90
7216;DHT22;3649;48.798;9.798;2023-05-07T10:02:04;22.70;99.90
7216;DHT22;3649;48.798;9.798;2023-05-07T10:04:33;22.60;99.90
7216;DHT22;3649;48.798;9.798;2023-05-07T10:07:00;22.60;99.90
7216;DHT22;3649;48.798;9.798;2023-05-07T10:09:28;22.60;99.90
7216;DHT22;3649;48.798;9.798;2023-05-07T10:11:56;22.60;99.90
7216;DHT22;3649;48.798;9.798;2023-05-07T10:14:23;22.60;99.90
7216;DHT22;3649;48.798;9.798;2023-05-07T10:16:51;22.50;99.90
7216;DHT22;3649;48.798;9.798;2023-05-07T10:19:20;22.50;99.90
7216;DHT22;3649;48.798;9.798;2023-05-07T10:22:02;22.50;99.90
7216;DHT22;3649;48.798;9.798;2023-05-07T10:24:32;22.50;99.90
7216;DHT22;3649;48.798;9.798;2023-05-07T10:27:02;22.50;99.90
7216;DHT22;3649;48.798;9.798;2023-05-07T10:29:53;22.40;99.90
7216;DHT22;3649;48.798;9.798;2023-05-07T10:32:40;22.40;99.90
7216;DHT22;3649;48.798;9.798;2023-05-07T10:35:21;22.40;99.90
7216;DHT22;3649;48.798;9.798;2023-05-07T10:37:50;22.40;99.90
7216;DHT22;3649;48.798;9.798;2023-05-07T10:40:17;22.40;99.90
7216;DHT22;3649;48.798;9.798;2023-05-07T10:42:59;22.30;99.90
7216;DHT22;3649;48.798;9.798;2023-05-07T10:45:28;22.40;99.90
7216;DHT22;3649;48.798;9.798;2023-05-07T10:48:14;22.30;99.90
7216;DHT22;3649;48.798;9.798;2023-05-07T10:50:45;22.30;99.90
7216;DHT22;3649;48.798;9.798;2023-05-07T10:58:35;22.20;99.90
7216;DHT22;3649;48.798;9.798;2023-05-07T11:01:03;22.20;99.90
7216;DHT22;3649;48.798;9.798;2023-05-07T11:03:30;22.20;99.90
7216;DHT22;3649;48.798;9.798;2023-05-07T11:06:14;22.40;99.90
7216;DHT22;3649;48.798;9.798;2023-05-07T11:14:14;22.40;99.90
7216;DHT22;3649;48.798;9.798;2023-05-07T11:17:04;22.40;99.90
7216;DHT22;3649;48.798;9.798;2023-05-07T11:25:05;22.40;99.90
7216;DHT22;3649;48.798;9.798;2023-05-07T11:27:33;22.40;99.90
7216;DHT22;3649;48.798;9.798;2023-05-07T11:30:00;22.40;99.90
7216;DHT22;3649;48.798;9.798;2023-05-07T11:32:31;22.30;99.90
7216;DHT22;3649;48.798;9.798;2023-05-07T11:34:59;22.30;99.90
7216;DHT22;3649;48.798;9.798;2023-05-07T11:37:27;22.40;99.90
7216;DHT22;3649;48.798;9.798;2023-05-07T11:40:07;22.40;99.90
7216;DHT22;3649;48.798;9.798;2023-05-07T11:42:36;22.30;99.90
7216;DHT22;3649;48.798;9.798;2023-05-07T11:45:05;22.30;99.90
7216;DHT22;3649;48.798;9.798;2023-05-07T11:47:32;22.30;99.90
7216;DHT22;3649;48.798;9.798;2023-05-07T11:50:07;22.40;99.90
7216;DHT22;3649;48.798;9.798;2023-05-07T11:52:35;22.40;99.90
7216;DHT22;3649;48.798;9.798;2023-05-07T11:55:03;22.40;99.90
7216;DHT22;3649;48.798;9.798;2023-05-07T11:57:33;22.40;99.90
7216;DHT22;3649;48.798;9.798;2023-05-07T12:00:00;22.50;99.90
7216;DHT22;3649;48.798;9.798;2023-05-07T12:02:28;22.50;99.90
7216;DHT22;3649;48.798;9.798;2023-05-07T12:04:55;22.50;99.90
7216;DHT22;3649;48.798;9.798;2023-05-07T12:07:24;22.50;99.90
7216;DHT22;3649;48.798;9.798;2023-05-07T12:09:52;22.50;99.90
7216;DHT22;3649;48.798;9.798;2023-05-07T12:12:18;22.50;99.90
7216;DHT22;3649;48.798;9.798;2023-05-07T12:14:46;22.50;99.90
7216;DHT22;3649;48.798;9.798;2023-05-07T12:17:14;22.50;99.90
7216;DHT22;3649;48.798;9.798;2023-05-07T12:19:43;22.50;99.90
7216;DHT22;3649;48.798;9.798;2023-05-07T12:22:11;22.50;99.90
7216;DHT22;3649;48.798;9.798;2023-05-07T12:24:49;22.50;99.90
7216;DHT22;3649;48.798;9.798;2023-05-07T12:27:17;22.60;99.90
7216;DHT22;3649;48.798;9.798;2023-05-07T12:29:47;22.60;99.90
7216;DHT22;3649;48.798;9.798;2023-05-07T12:32:19;22.50;99.90
7216;DHT22;3649;48.798;9.798;2023-05-07T12:34:49;22.50;99.90
7216;DHT22;3649;48.798;9.798;2023-05-07T12:37:16;22.50;99.90
7216;DHT22;3649;48.798;9.798;2023-05-07T12:40:02;22.50;99.90
7216;DHT22;3649;48.798;9.798;2023-05-07T12:42:33;22.50;99.90
7216;DHT22;3649;48.798;9.798;2023-05-07T12:45:11;22.40;99.90
7216;DHT22;3649;48.798;9.798;2023-05-07T12:47:43;22.40;99.90
7216;DHT22;3649;48.798;9.798;2023-05-07T12:50:13;22.40;99.90
7216;DHT22;3649;48.798;9.798;2023-05-07T12:52:40;22.40;99.90
7216;DHT22;3649;48.798;9.798;2023-05-07T12:55:08;22.50;99.90
7216;DHT22;3649;48.798;9.798;2023-05-07T12:57:43;22.50;99.90
7216;DHT22;3649;48.798;9.798;2023-05-07T13:00:10;22.50;99.90
7216;DHT22;3649;48.798;9.798;2023-05-07T13:02:38;22.50;99.90
7216;DHT22;3649;48.798;9.798;2023-05-07T13:05:06;22.40;99.90
7216;DHT22;3649;48.798;9.798;2023-05-07T13:07:34;22.40;99.90
7216;DHT22;3649;48.798;9.798;2023-05-07T13:10:01;22.40;99.90
7216;DHT22;3649;48.798;9.798;2023-05-07T13:12:28;22.40;99.90
7216;DHT22;3649;48.798;9.798;2023-05-07T13:14:54;22.40;99.90
7216;DHT22;3649;48.798;9.798;2023-05-07T13:17:21;22.50;99.90
7216;DHT22;3649;48.798;9.798;2023-05-07T13:19:48;22.50;99.90
7216;DHT22;3649;48.798;9.798;2023-05-07T13:22:15;22.50;99.90
7216;DHT22;3649;48.798;9.798;2023-05-07T13:24:42;22.60;99.90
7216;DHT22;3649;48.798;9.798;2023-05-07T13:27:10;22.50;99.90
7216;DHT22;3649;48.798;9.798;2023-05-07T13:29:37;22.50;99.90
7216;DHT22;3649;48.798;9.798;2023-05-07T13:32:04;22.50;99.90
7216;DHT22;3649;48.798;9.798;2023-05-07T13:34:31;22.50;99.90
7216;DHT22;3649;48.798;9.798;2023-05-07T13:36:58;22.40;99.90
7216;DHT22;3649;48.798;9.798;2023-05-07T13:39:24;22.40;99.90
7216;DHT22;3649;48.798;9.798;2023-05-07T13:41:51;22.30;99.90
7216;DHT22;3649;48.798;9.798;2023-05-07T13:44:18;22.30;99.90
7216;DHT22;3649;48.798;9.798;2023-05-07T13:46:45;22.30;99.90
7216;DHT22;3649;48.798;9.798;2023-05-07T13:49:12;22.20;99.90
7216;DHT22;3649;48.798;9.798;2023-05-07T13:51:39;22.20;99.90
7216;DHT22;3649;48.798;9.798;2023-05-07T13:54:06;22.20;99.90
7216;DHT22;3649;48.798;9.798;2023-05-07T13:56:33;22.20;99.90
7216;DHT22;3649;48.798;9.798;2023-05-07T13:59:00;22.10;99.90
7216;DHT22;3649;48.798;9.798;2023-05-07T14:01:27;22.10;99.90
7216;DHT22;3649;48.798;9.798;2023-05-07T14:03:55;22.10;99.90
7216;DHT22;3649;48.798;9.798;2023-05-07T14:06:22;22.00;99.90
7216;DHT22;3649;48.798;9.798;2023-05-07T14:08:49;22.10;99.90
7216;DHT22;3649;48.798;9.798;2023-05-07T14:11:15;22.00;99.90
7216;DHT22;3649;48.798;9.798;2023-05-07T14:13:42;22.00;99.90
7216;DHT22;3649;48.798;9.798;2023-05-07T14:16:09;22.00;99.90
7216;DHT22;3649;48.798;9.798;2023-05-07T14:18:36;22.00;99.90
7216;DHT22;3649;48.798;9.798;2023-05-07T14:21:05;21.90;99.90
7216;DHT22;3649;48.798;9.798;2023-05-07T14:23:36;21.90;99.90
7216;DHT22;3649;48.798;9.798;2023-05-07T14:26:03;21.90;99.90
7216;DHT22;3649;48.798;9.798;2023-05-07T14:28:30;21.90;99.90
7216;DHT22;3649;48.798;9.798;2023-05-07T14:30:58;21.80;99.90
7216;DHT22;3649;48.798;9.798;2023-05-07T14:33:25;21.80;99.90
7216;DHT22;3649;48.798;9.798;2023-05-07T14:35:52;21.80;99.90
7216;DHT22;3649;48.798;9.798;2023-05-07T14:38:18;21.80;99.90
7216;DHT22;3649;48.798;9.798;2023-05-07T14:40:45;21.90;99.90
7216;DHT22;3649;48.798;9.798;2023-05-07T14:43:12;22.00;99.90
7216;DHT22;3649;48.798;9.798;2023-05-07T14:45:39;22.10;99.90
7216;DHT22;3649;48.798;9.798;2023-05-07T14:48:06;22.20;99.90
7216;DHT22;3649;48.798;9.798;2023-05-07T14:50:33;22.20;99.90
7216;DHT22;3649;48.798;9.798;2023-05-07T14:53:00;22.20;99.90
7216;DHT22;3649;48.798;9.798;2023-05-07T14:55:26;22.10;99.90
7216;DHT22;3649;48.798;9.798;2023-05-07T14:57:55;22.10;99.90
7216;DHT22;3649;48.798;9.798;2023-05-07T15:00:22;22.10;99.90
7216;DHT22;3649;48.798;9.798;2023-05-07T15:02:49;22.20;99.90
7216;DHT22;3649;48.798;9.798;2023-05-07T15:05:16;22.20;99.90
7216;DHT22;3649;48.798;9.798;2023-05-07T15:07:44;22.10;99.90
7216;DHT22;3649;48.798;9.798;2023-05-07T15:10:12;22.20;99.90
7216;DHT22;3649;48.798;9.798;2023-05-07T15:12:39;22.20;99.90
7216;DHT22;3649;48.798;9.798;2023-05-07T15:15:06;22.10;99.90
7216;DHT22;3649;48.798;9.798;2023-05-07T15:17:33;22.00;99.90
7216;DHT22;3649;48.798;9.798;2023-05-07T15:20:00;22.00;99.90
7216;DHT22;3649;48.798;9.798;2023-05-07T15:22:27;21.90;99.90
7216;DHT22;3649;48.798;9.798;2023-05-07T15:24:54;21.80;99.90
7216;DHT22;3649;48.798;9.798;2023-05-07T15:27:21;21.80;99.90
7216;DHT22;3649;48.798;9.798;2023-05-07T15:29:48;21.70;99.90
7216;DHT22;3649;48.798;9.798;2023-05-07T15:32:15;21.70;99.90
7216;DHT22;3649;48.798;9.798;2023-05-07T15:34:42;21.60;99.90
7216;DHT22;3649;48.798;9.798;2023-05-07T15:37:09;21.60;99.90
7216;DHT22;3649;48.798;9.798;2023-05-07T15:39:36;21.50;99.90
7216;DHT22;3649;48.798;9.798;2023-05-07T15:42:03;21.40;99.90
7216;DHT22;3649;48.798;9.798;2023-05-07T15:44:30;21.40;99.90
7216;DHT22;3649;48.798;9.798;2023-05-07T15:47:01;21.40;99.90
7216;DHT22;3649;48.798;9.798;2023-05-07T15:49:28;21.30;99.90
7216;DHT22;3649;48.798;9.798;2023-05-07T15:51:55;21.30;99.90
7216;DHT22;3649;48.798;9.798;2023-05-07T15:54:22;21.20;99.90
7216;DHT22;3649;48.798;9.798;2023-05-07T15:56:49;21.20;99.90
7216;DHT22;3649;48.798;9.798;2023-05-07T15:59:16;21.20;99.90
7216;DHT22;3649;48.798;9.798;2023-05-07T16:01:43;21.10;99.90
7216;DHT22;3649;48.798;9.798;2023-05-07T16:04:11;19.70;99.90
7216;DHT22;3649;48.798;9.798;2023-05-07T16:06:38;21.20;99.90
7216;DHT22;3649;48.798;9.798;2023-05-07T16:09:05;21.10;99.90
7216;DHT22;3649;48.798;9.798;2023-05-07T16:11:31;21.10;99.90
7216;DHT22;3649;48.798;9.798;2023-05-07T16:13:59;21.10;99.90
7216;DHT22;3649;48.798;9.798;2023-05-07T16:16:27;21.00;99.90
7216;DHT22;3649;48.798;9.798;2023-05-07T16:18:55;21.00;99.90
7216;DHT22;3649;48.798;9.798;2023-05-07T16:21:23;20.90;99.90
7216;DHT22;3649;48.798;9.798;2023-05-07T16:23:49;20.90;99.90